Time;durP1;ratioP1;P1;durP2;ratioP2;P2;SDS_P1;SDS_P2;PMS_P1;PMS_P2;Temp;Humidity;BMP_temperature;BMP_pressure;BME280_temperature;BME280_humidity;BME280_pressure;Samples;Min_cycle;Max_cycle;Signal;HPM_P1;HPM_P2
2022/05/30 00:01:11;;;;;;;8.83;4.55;;;;;;;13.07;64.98;98604.63;1748368;82;21468;-52
2022/05/30 00:03:37;;;;;;;9.13;4.60;;;;;;;13.10;65.04;98607.05;1748010;81;21009;-46
2022/05/30 00:06:10;;;;;;;12.43;4.70;;;;;;;13.11;65.67;98594.68;1748522;82;21003;-47
2022/05/30 00:08:37;;;;;;;10.63;4.25;;;;;;;13.15;65.18;98601.40;1748182;82;21003;-53
2022/05/30 00:11:09;;;;;;;10.43;4.40;;;;;;;13.18;65.22;98601.17;1748383;82;21035;-49
2022/05/30 00:13:36;;;;;;;9.90;4.78;;;;;;;13.20;65.21;98597.93;1748125;82;21463;-42
2022/05/30 00:16:09;;;;;;;9.58;4.72;;;;;;;13.22;65.01;98603.93;1748101;81;20987;-55
2022/05/30 00:18:36;;;;;;;8.50;4.70;;;;;;;13.27;64.77;98607.55;1747966;81;21473;-59
2022/05/30 00:21:02;;;;;;;13.43;4.93;;;;;;;13.22;64.84;98607.89;1748423;82;20984;-53
2022/05/30 00:23:28;;;;;;;15.63;5.53;;;;;;;13.18;64.67;98610.41;1748360;82;20983;-57
2022/05/30 00:25:54;;;;;;;15.48;5.15;;;;;;;13.14;64.61;98610.30;1748131;82;21023;-53
2022/05/30 00:28:20;;;;;;;11.83;4.72;;;;;;;13.11;64.96;98617.12;1748089;82;21042;-50
2022/05/30 00:30:48;;;;;;;12.60;4.87;;;;;;;13.08;65.10;98618.20;1748122;82;20976;-45
2022/05/30 00:33:15;;;;;;;11.40;5.20;;;;;;;13.06;65.49;98614.81;1748145;82;21562;-49
2022/05/30 00:35:42;;;;;;;12.83;5.90;;;;;;;13.04;65.17;98614.96;1748327;82;20995;-60
2022/05/30 00:38:08;;;;;;;12.97;5.73;;;;;;;13.00;65.29;98612.17;1748333;82;20999;-45
2022/05/30 00:40:36;;;;;;;15.68;5.75;;;;;;;12.92;65.85;98610.61;1748064;82;21418;-48
2022/05/30 00:43:28;;;;;;;13.38;5.87;;;;;;;12.82;66.28;98613.11;1748004;82;20995;-51
2022/05/30 00:45:57;;;;;;;10.90;5.75;;;;;;;12.81;65.85;98612.73;1748117;81;20988;-49
2022/05/30 00:48:33;;;;;;;15.68;6.62;;;;;;;12.78;66.04;98610.81;1747960;82;21016;-55
2022/05/30 00:51:07;;;;;;;12.58;6.42;;;;;;;12.71;66.23;98610.41;1748071;82;21603;-46
2022/05/30 00:53:34;;;;;;;17.42;6.70;;;;;;;12.67;66.45;98603.70;1748174;81;21042;-54
2022/05/30 00:56:04;;;;;;;13.85;5.95;;;;;;;12.61;66.59;98602.36;1748228;82;21039;-52
2022/05/30 00:58:33;;;;;;;10.60;5.65;;;;;;;12.57;66.51;98598.28;1748134;82;20991;-52
2022/05/30 01:00:59;;;;;;;9.95;6.10;;;;;;;12.53;66.63;98599.44;1748094;82;21000;-44
2022/05/30 01:08:55;;;;;;;10.68;5.65;;;;;;;12.45;68.67;98594.74;1748179;82;21011;-49
2022/05/30 01:11:20;;;;;;;16.87;7.50;;;;;;;12.47;68.61;98597.27;1748435;81;21607;-50
2022/05/30 01:13:46;;;;;;;16.70;7.12;;;;;;;12.46;69.36;98589.84;1748088;82;20972;-52
2022/05/30 01:16:12;;;;;;;12.53;5.55;;;;;;;12.44;69.85;98586.94;1748065;82;21023;-44
2022/05/30 01:18:52;;;;;;;12.23;6.17;;;;;;;12.43;69.86;98583.47;1748064;82;21362;-49
2022/05/30 01:21:42;;;;;;;9.88;6.25;;;;;;;12.42;70.11;98577.81;1748170;82;20989;-47
2022/05/30 01:24:51;;;;;;;12.03;6.00;;;;;;;12.46;70.30;98577.11;1747495;82;20968;-54
2022/05/30 01:27:55;;;;;;;12.78;5.17;;;;;;;12.49;70.43;98578.21;1748080;81;21874;-53
2022/05/30 01:30:21;;;;;;;9.33;4.85;;;;;;;12.53;70.28;98578.34;1748114;82;20992;-54
2022/05/30 01:32:47;;;;;;;10.60;4.70;;;;;;;12.58;69.66;98581.48;1748080;82;20995;-52
2022/05/30 01:35:24;;;;;;;10.18;4.85;;;;;;;12.60;70.12;98572.97;1748010;82;21473;-51
2022/05/30 01:37:49;;;;;;;13.08;4.80;;;;;;;12.61;69.18;98575.16;1748198;81;20976;-58
2022/05/30 01:40:15;;;;;;;11.00;5.10;;;;;;;12.60;69.32;98569.02;1748127;82;21492;-57
2022/05/30 01:42:41;;;;;;;19.30;9.73;;;;;;;12.61;69.26;98568.56;1748044;82;21039;-46
2022/05/30 01:45:08;;;;;;;20.57;12.55;;;;;;;12.60;69.50;98569.02;1748087;82;20992;-46
2022/05/30 01:47:34;;;;;;;21.15;9.88;;;;;;;12.63;69.28;98568.80;1749665;81;20995;-55
2022/05/30 01:50:02;;;;;;;18.15;10.03;;;;;;;12.65;69.43;98565.55;1761115;81;21047;-53
2022/05/30 01:52:28;;;;;;;17.00;11.35;;;;;;;12.68;68.56;98565.83;1742901;81;21054;-53
2022/05/30 01:54:55;;;;;;;13.22;8.05;;;;;;;12.69;68.35;98564.84;1759995;81;21093;-53
2022/05/30 01:57:21;;;;;;;17.07;8.60;;;;;;;12.68;67.97;98565.83;1760424;81;21026;-51
2022/05/30 01:59:46;;;;;;;15.95;8.23;;;;;;;12.67;67.87;98560.17;1760216;80;20995;-52
2022/05/30 02:02:12;;;;;;;20.48;13.15;;;;;;;12.66;68.12;98556.70;1760172;81;21564;-53
2022/05/30 02:04:38;;;;;;;19.87;12.00;;;;;;;12.66;67.79;98552.74;1761385;81;21595;-50
2022/05/30 02:07:05;;;;;;;16.12;11.35;;;;;;;12.63;67.76;98560.87;1761382;81;20951;-48
2022/05/30 02:09:31;;;;;;;14.47;8.55;;;;;;;12.65;67.94;98556.81;1761431;81;21531;-49
2022/05/30 02:11:57;;;;;;;13.93;7.30;;;;;;;12.67;68.21;98558.85;1761247;81;20987;-47
2022/05/30 02:14:24;;;;;;;10.18;4.62;;;;;;;12.66;68.57;98555.84;1761405;81;20991;-52
2022/05/30 02:17:04;;;;;;;9.90;4.37;;;;;;;12.67;68.30;98558.36;1761233;80;20959;-58
2022/05/30 02:19:40;;;;;;;11.22;5.20;;;;;;;12.68;68.08;98561.37;1761270;81;21485;-53
2022/05/30 02:22:12;;;;;;;12.33;5.47;;;;;;;12.63;69.38;98555.60;1760656;81;21477;-48
2022/05/30 02:24:41;;;;;;;12.40;6.50;;;;;;;12.58;69.83;98555.10;1761351;81;20998;-54
2022/05/30 02:27:11;;;;;;;11.22;6.40;;;;;;;12.58;69.99;98555.10;1761294;81;21038;-47
2022/05/30 02:29:38;;;;;;;15.53;6.12;;;;;;;12.55;70.39;98554.49;1761390;81;21018;-49
2022/05/30 02:32:05;;;;;;;13.40;6.53;;;;;;;12.53;70.70;98549.81;1761003;80;21499;-52
2022/05/30 02:37:16;;;;;;;16.30;5.70;;;;;;;12.44;71.72;98540.34;1761429;81;20128;-48
2022/05/30 02:39:42;;;;;;;12.88;5.58;;;;;;;12.49;70.17;98543.93;1761503;81;20972;-49
2022/05/30 02:42:10;;;;;;;11.08;5.65;;;;;;;12.45;70.97;98546.44;1746330;78;21085;-40
2022/05/30 02:44:38;;;;;;;15.95;6.25;;;;;;;12.44;71.38;98547.39;1754216;81;25067;-38
2022/05/30 02:47:05;;;;;;;13.68;6.35;;;;;;;12.45;70.90;98545.13;1754506;82;21025;-38
2022/05/30 02:49:31;;;;;;;13.00;5.70;;;;;;;12.45;70.87;98535.89;1754839;81;21157;-40
2022/05/30 02:51:58;;;;;;;12.73;5.37;;;;;;;12.49;70.67;98545.25;1754638;81;20966;-40
2022/05/30 02:54:25;;;;;;;12.85;5.33;;;;;;;12.51;70.67;98545.14;1754687;82;20972;-39
2022/05/30 02:56:55;;;;;;;15.45;6.10;;;;;;;12.51;70.72;98540.70;1754769;82;20965;-41
2022/05/30 02:59:21;;;;;;;14.58;6.12;;;;;;;12.49;71.01;98546.56;1754577;81;20965;-38
2022/05/30 03:01:47;;;;;;;13.58;6.05;;;;;;;12.46;71.13;98545.02;1754589;81;20985;-38
2022/05/30 03:04:15;;;;;;;12.43;5.37;;;;;;;12.45;70.67;98542.00;1754588;81;20942;-42
2022/05/30 03:06:41;;;;;;;;;;;;;;;12.44;70.45;98539.02;1757228;82;21423;-41
2022/05/30 03:09:07;;;;;;;12.88;5.60;;;;;;;12.40;71.33;98535.39;1754632;82;20103;-39
2022/05/30 03:11:33;;;;;;;12.80;5.70;;;;;;;12.40;70.86;98535.39;1754571;82;21455;-41
2022/05/30 03:13:59;;;;;;;12.80;5.20;;;;;;;12.40;70.76;98539.35;1754635;81;20978;-41
2022/05/30 03:16:25;;;;;;;12.47;5.20;;;;;;;12.41;70.43;98532.64;1754589;81;21469;-41
2022/05/30 03:18:51;;;;;;;9.35;5.42;;;;;;;12.38;70.72;98530.23;1754620;82;21013;-41
2022/05/30 03:21:17;;;;;;;10.10;5.42;;;;;;;12.37;70.59;98532.52;1754615;82;20978;-41
2022/05/30 03:23:43;;;;;;;11.15;5.03;;;;;;;12.37;71.04;98525.93;1754656;81;21002;-41
2022/05/30 03:26:10;;;;;;;8.70;5.12;;;;;;;12.36;71.40;98525.55;1754523;81;21024;-41
2022/05/30 03:28:38;;;;;;;11.38;5.12;;;;;;;12.38;71.19;98527.59;1754748;81;20969;-42
2022/05/30 03:31:07;;;;;;;15.80;5.53;;;;;;;12.39;71.22;98534.56;1754554;82;20985;-38
2022/05/30 03:33:34;;;;;;;17.12;5.55;;;;;;;12.43;70.81;98537.81;1754723;81;21529;-41
2022/05/30 03:36:01;;;;;;;9.08;4.92;;;;;;;12.43;71.01;98539.96;1754697;82;20962;-38
2022/05/30 03:38:26;;;;;;;12.63;5.42;;;;;;;12.39;70.89;98536.37;1754576;82;20981;-39
2022/05/30 03:40:52;;;;;;;13.38;5.85;;;;;;;12.36;71.24;98539.22;1754661;81;21411;-40
2022/05/30 03:43:18;;;;;;;9.58;5.40;;;;;;;12.28;71.31;98535.36;1751480;80;21550;-41
2022/05/30 03:45:45;;;;;;;10.78;5.87;;;;;;;12.25;71.70;98530.80;1751203;82;21482;-40
2022/05/30 03:48:14;;;;;;;11.53;5.70;;;;;;;12.23;71.65;98527.44;1752464;81;20989;-39
2022/05/30 03:50:41;;;;;;;11.83;5.65;;;;;;;12.21;72.08;98528.86;1752323;82;20942;-38
2022/05/30 03:53:08;;;;;;;22.13;6.85;;;;;;;12.21;71.49;98531.98;1752561;82;21537;-40
2022/05/30 03:55:39;;;;;;;11.80;5.47;;;;;;;12.22;72.27;98523.94;1752587;81;21391;-40
2022/05/30 03:58:07;;;;;;;9.45;5.55;;;;;;;12.17;72.40;98527.42;1752317;81;20954;-40
2022/05/30 04:00:33;;;;;;;15.53;5.42;;;;;;;12.12;72.09;98526.08;1752352;81;21502;-37
2022/05/30 04:03:00;;;;;;;10.03;5.40;;;;;;;12.10;72.13;98530.14;1752542;82;20974;-37
2022/05/30 04:05:27;;;;;;;8.33;5.47;;;;;;;12.13;72.30;98528.58;1752444;82;20970;-42
2022/05/30 04:07:53;;;;;;;12.30;5.20;;;;;;;12.17;72.75;98534.00;1752260;82;20973;-41
2022/05/30 04:10:20;;;;;;;10.10;5.65;;;;;;;12.18;72.37;98535.67;1752394;82;21475;-42
2022/05/30 04:12:46;;;;;;;9.88;6.30;;;;;;;12.22;72.25;98533.16;1752549;82;21033;-40
2022/05/30 04:15:21;;;;;;;10.35;5.83;;;;;;;12.18;72.86;98527.77;1752430;82;21475;-38
2022/05/30 04:17:48;;;;;;;13.10;6.10;;;;;;;12.20;72.53;98531.13;1752325;82;20970;-39
2022/05/30 04:20:16;;;;;;;15.58;7.08;;;;;;;12.21;73.36;98528.03;1752392;81;20974;-41
2022/05/30 04:22:44;;;;;;;12.35;6.62;;;;;;;12.17;73.86;98525.23;1752409;82;20982;-39
2022/05/30 04:25:11;;;;;;;13.75;6.17;;;;;;;12.14;73.58;98528.12;1752291;81;21443;-40
2022/05/30 04:27:37;;;;;;;14.33;6.28;;;;;;;12.15;73.40;98525.83;1752441;81;20942;-42
2022/05/30 04:30:05;;;;;;;12.13;6.12;;;;;;;12.14;73.46;98530.75;1752333;81;21098;-38
2022/05/30 04:32:31;;;;;;;11.48;6.17;;;;;;;12.17;73.86;98524.78;1752289;81;20970;-42
2022/05/30 04:34:57;;;;;;;12.82;6.53;;;;;;;12.19;74.04;98526.82;1752342;82;20969;-40
2022/05/30 04:37:23;;;;;;;9.03;5.50;;;;;;;12.27;72.93;98527.08;1752277;82;20987;-39
2022/05/30 04:39:49;;;;;;;8.38;5.55;;;;;;;12.31;73.23;98526.38;1752312;81;20993;-42
2022/05/30 04:42:15;;;;;;;9.33;5.15;;;;;;;12.35;73.34;98525.66;1749795;82;21022;-43
2022/05/30 04:44:41;;;;;;;14.03;5.78;;;;;;;12.39;73.78;98527.14;1744378;82;20967;-39
2022/05/30 04:47:09;;;;;;;13.38;5.90;;;;;;;12.43;72.90;98521.99;1744374;81;20974;-39
2022/05/30 04:49:35;;;;;;;10.18;5.53;;;;;;;12.48;72.48;98523.81;1744327;81;21819;-42
2022/05/30 04:52:00;;;;;;;10.25;4.83;;;;;;;12.45;72.43;98522.71;1744354;82;20974;-39
2022/05/30 04:54:26;;;;;;;13.03;6.10;;;;;;;12.49;72.72;98526.30;1744343;81;20966;-41
2022/05/30 04:56:52;;;;;;;10.68;5.40;;;;;;;12.51;72.34;98523.55;1744434;81;20978;-42
2022/05/30 04:59:18;;;;;;;13.40;5.00;;;;;;;12.51;72.45;98518.28;1744355;82;20970;-39
2022/05/30 05:01:44;;;;;;;9.80;4.55;;;;;;;12.58;72.05;98517.34;1744368;81;20938;-38
2022/05/30 05:04:11;;;;;;;11.12;4.90;;;;;;;12.60;71.28;98516.27;1744375;82;21499;-39
2022/05/30 05:06:39;;;;;;;16.85;4.78;;;;;;;12.61;70.88;98521.08;1744479;82;20966;-39
2022/05/30 05:09:24;;;;;;;11.80;4.67;;;;;;;12.62;71.33;98520.11;1744504;82;21002;-38
2022/05/30 05:11:50;;;;;;;10.32;4.53;;;;;;;12.67;70.49;98524.07;1744477;82;20978;-40
2022/05/30 05:14:16;;;;;;;8.03;3.70;;;;;;;12.67;70.28;98518.80;1744287;82;21009;-40
2022/05/30 05:16:42;;;;;;;7.83;4.25;;;;;;;12.68;70.50;98518.34;1744393;81;20923;-39
2022/05/30 05:19:09;;;;;;;8.83;4.37;;;;;;;12.72;70.28;98521.58;1744385;82;21471;-43
2022/05/30 05:21:39;;;;;;;11.00;4.58;;;;;;;12.81;70.06;98515.60;1744369;81;21448;-40
2022/05/30 05:24:07;;;;;;;7.47;3.98;;;;;;;12.80;69.90;98511.27;1744296;82;21459;-42
2022/05/30 05:26:34;;;;;;;4.75;3.58;;;;;;;12.86;69.21;98504.19;1744300;82;20986;-40
2022/05/30 05:29:00;;;;;;;10.70;3.85;;;;;;;12.90;69.24;98514.02;1744528;82;20943;-40
2022/05/30 05:31:32;;;;;;;5.97;3.70;;;;;;;12.97;69.04;98508.18;1744340;82;21293;-42
2022/05/30 05:33:58;;;;;;;7.53;3.70;;;;;;;13.04;69.13;98509.84;1744199;82;21455;-42
2022/05/30 05:36:28;;;;;;;8.85;3.55;;;;;;;13.15;69.33;98507.23;1744358;82;21022;-39
2022/05/30 05:38:54;;;;;;;6.35;3.75;;;;;;;13.26;68.85;98510.31;1744375;82;20951;-38
2022/05/30 05:41:23;;;;;;;9.28;3.42;;;;;;;13.31;67.61;98509.50;1744257;82;20970;-41
2022/05/30 05:43:53;;;;;;;6.37;3.40;;;;;;;13.39;67.93;98505.80;1753147;81;21440;-40
2022/05/30 05:46:23;;;;;;;4.78;2.90;;;;;;;13.40;66.95;98504.81;1754694;82;21009;-41
2022/05/30 05:48:51;;;;;;;10.38;5.75;;;;;;;13.43;66.76;98499.30;1754865;81;20961;-38
2022/05/30 05:51:19;;;;;;;6.12;2.67;;;;;;;13.44;66.54;98497.48;1754816;82;21001;-40
2022/05/30 05:53:46;;;;;;;6.55;2.65;;;;;;;13.49;66.02;98498.45;1754657;82;21021;-40
2022/05/30 05:56:19;;;;;;;7.20;2.40;;;;;;;13.51;65.85;98504.45;1754833;82;21036;-41
2022/05/30 05:58:46;;;;;;;4.75;2.58;;;;;;;13.63;65.62;98496.87;1754728;82;20966;-40
2022/05/30 06:01:19;;;;;;;5.55;2.52;;;;;;;13.70;65.21;98504.66;1754672;82;20974;-38
2022/05/30 06:03:45;;;;;;;8.28;2.47;;;;;;;13.69;63.63;98504.78;1754504;82;21005;-40
2022/05/30 06:06:10;;;;;;;5.70;2.90;;;;;;;13.68;63.76;98506.59;1754650;82;21471;-40
2022/05/30 06:08:36;;;;;;;6.80;2.80;;;;;;;13.76;64.04;98504.16;1754669;82;21409;-41
2022/05/30 06:11:08;;;;;;;7.22;3.08;;;;;;;13.82;63.89;98499.70;1754705;81;21534;-39
2022/05/30 06:13:36;;;;;;;8.03;3.30;;;;;;;13.89;64.06;98497.88;1754760;82;20926;-39
2022/05/30 06:16:05;;;;;;;10.23;3.17;;;;;;;13.91;63.61;98499.41;1754007;82;20977;-39
2022/05/30 06:18:31;;;;;;;10.48;2.90;;;;;;;13.93;63.57;98492.69;1754640;82;21585;-39
2022/05/30 06:21:00;;;;;;;5.60;2.35;;;;;;;14.01;63.21;98493.74;1754593;82;21006;-38
2022/05/30 06:23:26;;;;;;;5.10;2.75;;;;;;;14.09;62.16;98505.00;1754611;82;20966;-40
2022/05/30 06:25:53;;;;;;;4.08;2.10;;;;;;;14.13;62.22;98498.48;1754691;81;21497;-42
2022/05/30 06:28:19;;;;;;;5.67;2.97;;;;;;;14.12;61.71;98493.35;1755061;82;20970;-39
2022/05/30 06:30:45;;;;;;;4.10;1.85;;;;;;;14.16;61.12;98501.38;1754616;82;20973;-39
2022/05/30 06:33:10;;;;;;;7.17;2.25;;;;;;;14.04;59.31;98499.73;1754596;82;20974;-41
2022/05/30 06:35:44;;;;;;;7.90;2.15;;;;;;;14.02;59.04;98497.22;1754606;82;20943;-39
2022/05/30 06:38:11;;;;;;;5.22;1.80;;;;;;;14.06;59.02;98496.48;1754640;81;21451;-38
2022/05/30 06:40:37;;;;;;;7.50;1.77;;;;;;;14.02;58.72;98495.89;1754867;81;20954;-41
2022/05/30 06:43:03;;;;;;;5.60;2.20;;;;;;;14.06;59.96;98493.84;1734831;82;21031;-41
2022/05/30 06:45:33;;;;;;;10.45;2.05;;;;;;;14.04;59.21;98496.60;1708494;84;21039;-40
2022/05/30 06:47:59;;;;;;;6.08;2.25;;;;;;;14.05;59.70;98496.97;1708272;82;21003;-41
2022/05/30 06:50:26;;;;;;;5.12;2.12;;;;;;;14.17;60.02;98498.61;1708330;84;21051;-42
2022/05/30 06:52:52;;;;;;;14.20;2.75;;;;;;;14.20;59.83;98497.02;1708334;83;20992;-41
2022/05/30 06:55:18;;;;;;;2.58;2.30;;;;;;;14.27;59.68;98495.20;1708380;83;21331;-41
2022/05/30 07:00:32;;;;;;;5.50;1.67;;;;;;;14.41;58.17;98500.18;1708286;84;20979;-41
2022/05/30 07:02:59;;;;;;;7.60;2.25;;;;;;;14.50;58.73;98497.25;1708236;84;21509;-41
2022/05/30 07:05:25;;;;;;;8.73;2.45;;;;;;;14.51;58.43;98504.20;1708485;84;21002;-42
2022/05/30 07:07:55;;;;;;;5.87;1.80;;;;;;;14.47;57.96;98504.94;1708563;84;20983;-41
2022/05/30 07:10:18;;;;;;;;;;;;;;;14.44;58.02;98498.58;1710519;83;21661;-43
2022/05/30 07:12:44;;;;;;;2.55;2.00;;;;;;;14.44;58.17;98504.36;1708328;84;20160;-42
2022/05/30 07:15:11;;;;;;;5.47;1.90;;;;;;;14.51;58.77;98502.39;1708342;84;20987;-42
2022/05/30 07:17:36;;;;;;;6.78;2.10;;;;;;;14.51;58.96;98511.64;1708271;84;21012;-40
2022/05/30 07:20:03;;;;;;;2.00;1.80;;;;;;;14.49;58.97;98507.47;1708432;83;20992;-39
2022/05/30 07:22:29;;;;;;;6.53;2.58;;;;;;;14.52;59.20;98507.22;1708695;83;21507;-40
2022/05/30 07:24:55;;;;;;;5.20;1.95;;;;;;;14.29;58.83;98501.20;1708679;84;20980;-41
2022/05/30 07:27:21;;;;;;;4.53;2.10;;;;;;;14.39;59.24;98507.41;1708446;84;20971;-41
2022/05/30 07:29:47;;;;;;;2.62;2.00;;;;;;;14.37;59.17;98509.31;1708373;82;21445;-40
2022/05/30 07:32:12;;;;;;;5.37;2.30;;;;;;;14.30;59.54;98501.56;1708419;84;20967;-42
2022/05/30 07:34:38;;;;;;;3.75;2.40;;;;;;;14.30;59.84;98508.18;1708530;83;21043;-41
2022/05/30 07:37:04;;;;;;;8.70;2.27;;;;;;;14.32;59.85;98507.07;1708465;84;21794;-38
2022/05/30 07:39:30;;;;;;;5.45;2.40;;;;;;;14.35;60.03;98504.18;1708676;84;21638;-42
2022/05/30 07:41:56;;;;;;;6.83;2.47;;;;;;;14.34;60.30;98509.09;1708462;83;20995;-44
2022/05/30 07:44:22;;;;;;;4.97;2.10;;;;;;;14.37;60.58;98510.64;1747926;82;20994;-44
2022/05/30 07:46:48;;;;;;;3.77;2.17;;;;;;;14.34;60.48;98515.71;1754829;82;20966;-42
2022/05/30 07:49:14;;;;;;;7.87;2.25;;;;;;;14.40;61.05;98509.06;1754745;81;20950;-43
2022/05/30 07:51:42;;;;;;;7.80;2.35;;;;;;;14.49;60.98;98511.44;1754873;81;20978;-43
2022/05/30 07:54:08;;;;;;;6.22;2.25;;;;;;;14.54;60.93;98509.25;1754893;81;21435;-42
2022/05/30 07:56:33;;;;;;;5.45;2.25;;;;;;;14.46;61.34;98509.89;1754774;82;21013;-42
2022/05/30 07:58:59;;;;;;;4.50;2.20;;;;;;;14.39;62.23;98510.88;1754780;82;20942;-40
2022/05/30 08:01:25;;;;;;;8.48;2.47;;;;;;;14.36;62.14;98516.91;1754935;82;20988;-40
2022/05/30 08:03:52;;;;;;;6.78;2.40;;;;;;;14.33;62.28;98515.34;1754774;81;21005;-43
2022/05/30 08:06:23;;;;;;;6.70;2.65;;;;;;;14.34;62.48;98517.53;1754960;81;20957;-41
2022/05/30 08:08:49;;;;;;;6.62;2.30;;;;;;;14.19;62.80;98519.15;1754733;81;20966;-42
2022/05/30 08:11:16;;;;;;;5.50;2.10;;;;;;;14.33;62.50;98522.45;1754977;81;21009;-43
2022/05/30 08:13:47;;;;;;;3.83;2.22;;;;;;;14.35;62.33;98516.54;1754933;81;21028;-43
2022/05/30 08:16:21;;;;;;;5.10;2.40;;;;;;;14.30;62.36;98523.55;1754810;81;20997;-43
2022/05/30 08:18:47;;;;;;;10.88;2.20;;;;;;;14.33;61.98;98524.59;1754771;82;21005;-41
2022/05/30 08:21:15;;;;;;;4.35;2.25;;;;;;;14.15;61.98;98532.73;1754829;81;21494;-41
2022/05/30 08:23:40;;;;;;;4.92;2.62;;;;;;;14.10;62.40;98531.81;1754685;81;20965;-41
2022/05/30 08:26:06;;;;;;;8.55;2.40;;;;;;;14.12;62.79;98521.11;1750248;82;20981;-42
2022/05/30 08:28:33;;;;;;;3.75;2.20;;;;;;;14.12;62.89;98529.05;1742848;82;20992;-42
2022/05/30 08:30:59;;;;;;;5.72;2.30;;;;;;;14.10;63.69;98526.52;1742700;82;20998;-40
2022/05/30 08:33:25;;;;;;;4.83;2.30;;;;;;;14.16;63.24;98524.68;1742488;82;21517;-43
2022/05/30 08:36:07;;;;;;;5.50;2.33;;;;;;;14.08;63.35;98531.56;1742544;82;21454;-45
2022/05/30 08:38:36;;;;;;;4.30;2.25;;;;;;;14.01;63.37;98532.56;1742429;82;21008;-41
2022/05/30 08:43:56;;;;;;;4.42;2.37;;;;;;;13.72;64.27;98529.16;1738111;81;21097;-41
2022/05/30 08:46:56;;;;;;;5.15;2.08;;;;;;;13.59;65.05;98535.90;1734916;82;21009;-43
2022/05/30 08:49:28;;;;;;;6.08;2.62;;;;;;;13.52;64.55;98532.56;1734418;82;21048;-39
2022/05/30 08:52:29;;;;;;;6.25;2.45;;;;;;;13.36;65.01;98540.36;1732103;82;20988;-40
2022/05/30 08:55:06;;;;;;;2.95;2.20;;;;;;;13.34;64.97;98554.66;1734542;83;20978;-42
2022/05/30 08:58:11;;;;;;;6.85;2.08;;;;;;;13.13;65.58;98549.20;1734861;82;20997;-41
2022/05/30 09:00:53;;;;;;;4.80;2.00;;;;;;;13.16;65.29;98546.33;1734465;82;21048;-40
2022/05/30 09:03:44;;;;;;;5.28;2.77;;;;;;;13.12;65.48;98552.33;1732981;82;21134;-42
2022/05/30 09:06:25;;;;;;;5.47;2.90;;;;;;;13.12;65.28;98555.46;1715895;83;21009;-40
2022/05/30 09:08:58;;;;;;;9.35;2.35;;;;;;;12.91;65.95;98553.98;1734520;82;21029;-40
2022/05/30 09:11:35;;;;;;;5.65;2.60;;;;;;;13.08;65.40;98555.31;1733775;83;21021;-41
2022/05/30 09:14:12;;;;;;;5.75;2.17;;;;;;;13.08;65.46;98560.59;1734775;82;21008;-38
2022/05/30 09:16:44;;;;;;;6.17;2.60;;;;;;;13.01;66.18;98558.44;1734737;82;21138;-39
2022/05/30 09:19:14;;;;;;;6.00;2.33;;;;;;;13.04;66.01;98564.81;1734933;82;21031;-44
2022/05/30 09:21:40;;;;;;;10.08;2.52;;;;;;;12.89;67.72;98570.41;1742472;82;20970;-40
2022/05/30 09:24:07;;;;;;;5.97;2.65;;;;;;;12.80;67.61;98560.08;1744473;81;20971;-42
2022/05/30 09:26:37;;;;;;;4.50;2.30;;;;;;;12.77;67.86;98569.08;1744166;81;21471;-41
2022/05/30 09:29:12;;;;;;;7.58;2.72;;;;;;;12.77;67.79;98574.81;1744325;81;20970;-40
2022/05/30 09:31:58;;;;;;;5.33;2.20;;;;;;;12.85;67.40;98573.77;1732014;82;20972;-39
2022/05/30 09:34:47;;;;;;;6.95;2.35;;;;;;;12.76;67.78;98583.70;1725181;82;21409;-39
2022/05/30 09:37:38;;;;;;;6.92;2.60;;;;;;;12.70;68.14;98584.14;1742661;82;21003;-39
2022/05/30 09:40:05;;;;;;;7.60;3.05;;;;;;;12.73;68.22;98582.61;1742411;82;21035;-42
2022/05/30 09:42:34;;;;;;;6.70;1.95;;;;;;;12.72;68.11;98588.86;1742628;81;21003;-41
2022/05/30 09:45:11;;;;;;;6.25;2.58;;;;;;;12.54;68.98;98594.54;1742398;82;21512;-40
2022/05/30 09:47:37;;;;;;;4.58;2.40;;;;;;;12.52;69.01;98592.50;1742754;82;20992;-41
2022/05/30 09:50:18;;;;;;;4.60;2.35;;;;;;;12.32;70.16;98597.09;1742555;82;21548;-40
2022/05/30 09:52:44;;;;;;;5.22;2.60;;;;;;;12.32;69.85;98594.46;1742482;82;20995;-42
2022/05/30 09:55:27;;;;;;;5.33;2.37;;;;;;;12.19;70.26;98596.67;1742356;82;21540;-45
2022/05/30 09:57:54;;;;;;;4.83;2.52;;;;;;;12.20;70.24;98598.34;1721890;82;21532;-37
2022/05/30 10:00:39;;;;;;;;;;;;;;;12.17;70.05;98603.85;1745146;82;21035;-43
2022/05/30 10:03:12;;;;;;;3.83;2.22;;;;;;;12.12;70.63;98602.02;1742538;82;20111;-40
2022/05/30 10:05:39;;;;;;;10.48;2.30;;;;;;;12.05;70.74;98616.59;1742337;82;21047;-41
2022/05/30 10:08:23;;;;;;;8.68;2.55;;;;;;;12.10;69.99;98621.06;1742736;82;21004;-43
2022/05/30 10:10:52;;;;;;;5.62;2.77;;;;;;;12.06;69.87;98619.13;1742458;81;20991;-40
2022/05/30 10:13:38;;;;;;;5.53;2.08;;;;;;;12.09;70.30;98623.32;1742621;82;21007;-40
2022/05/30 10:16:12;;;;;;;2.98;2.12;;;;;;;12.11;70.51;98626.69;1742387;82;21079;-43
2022/05/30 10:18:43;;;;;;;2.98;2.08;;;;;;;12.08;71.07;98630.88;1742177;82;21039;-41
2022/05/30 10:21:35;;;;;;;4.70;2.30;;;;;;;12.05;71.13;98631.09;1741001;82;21031;-43
2022/05/30 10:30:26;;;;;;;6.47;2.27;;;;;;;11.88;73.03;98647.59;1742723;82;21046;-41
2022/05/30 10:33:21;;;;;;;4.80;2.00;;;;;;;11.71;74.35;98650.56;1741144;82;21730;-42
2022/05/30 10:36:19;;;;;;;6.30;2.50;;;;;;;11.68;74.73;98656.08;1742883;82;21020;-40
2022/05/30 10:39:14;;;;;;;5.92;2.50;;;;;;;11.60;75.34;98659.70;1742475;82;21845;-41
2022/05/30 10:42:10;;;;;;;8.63;2.42;;;;;;;11.54;76.38;98664.92;1741446;82;21008;-42
2022/05/30 10:44:44;;;;;;;3.83;2.40;;;;;;;11.48;77.49;98660.92;1741645;82;21078;-44
2022/05/30 10:47:35;;;;;;;7.20;2.40;;;;;;;11.47;76.65;98668.44;1741840;82;21035;-39
2022/05/30 10:50:07;;;;;;;6.30;2.25;;;;;;;11.48;76.38;98667.99;1708793;82;21095;-42
2022/05/30 10:52:38;;;;;;;4.90;1.98;;;;;;;11.31;78.08;98678.34;1707680;84;21527;-41
2022/05/30 10:55:12;;;;;;;4.30;2.22;;;;;;;11.25;78.43;98678.77;1707917;84;21046;-41
2022/05/30 10:57:50;;;;;;;6.92;2.30;;;;;;;11.37;77.85;98688.47;1673883;85;21057;-43
2022/05/30 11:00:19;;;;;;;9.05;1.92;;;;;;;11.37;77.99;98680.58;1705417;84;21090;-41
2022/05/30 11:03:03;;;;;;;2.77;1.65;;;;;;;11.44;76.42;98689.73;1674216;86;21025;-38
2022/05/30 11:05:55;;;;;;;10.28;2.45;;;;;;;11.49;75.83;98694.67;1708062;84;21104;-43
2022/05/30 11:09:16;;;;;;;8.05;2.20;;;;;;;11.50;75.43;98697.20;1707625;84;21023;-42
2022/05/30 11:11:50;;;;;;;3.25;1.92;;;;;;;11.51;76.25;98700.22;1673210;85;21625;-42
2022/05/30 11:14:30;;;;;;;3.83;1.90;;;;;;;11.59;78.02;98695.73;1707543;84;21513;-42
2022/05/30 11:17:28;;;;;;;2.75;1.92;;;;;;;11.65;76.69;98697.09;1673635;85;21055;-40
2022/05/30 11:20:17;;;;;;;5.45;1.98;;;;;;;11.70;76.96;98697.14;1707456;84;21082;-40
2022/05/30 11:22:49;;;;;;;4.25;1.92;;;;;;;11.72;76.19;98701.83;1708086;84;21066;-39
2022/05/30 11:25:23;;;;;;;4.12;2.15;;;;;;;11.74;77.33;98703.05;1673010;85;21573;-45
2022/05/30 11:28:11;;;;;;;3.40;1.87;;;;;;;11.76;76.20;98701.62;1695685;84;21055;-39
2022/05/30 11:30:52;;;;;;;6.95;2.30;;;;;;;11.85;75.85;98699.18;1672226;85;21747;-44
2022/05/30 11:33:50;;;;;;;2.15;1.75;;;;;;;11.90;76.99;98702.38;1707277;83;21054;-39
2022/05/30 11:36:40;;;;;;;6.47;1.75;;;;;;;12.05;75.17;98708.83;1708716;84;20984;-40
2022/05/30 11:39:26;;;;;;;6.33;2.17;;;;;;;12.01;75.07;98702.10;1674384;85;21523;-42
2022/05/30 11:42:09;;;;;;;4.28;1.80;;;;;;;12.09;74.86;98707.66;1708164;84;21015;-45
2022/05/30 11:44:46;;;;;;;4.25;1.80;;;;;;;12.16;74.90;98702.80;1697607;84;21520;-45
2022/05/30 11:47:36;;;;;;;5.50;2.00;;;;;;;12.22;74.45;98704.50;1685611;84;21007;-43
2022/05/30 11:50:28;;;;;;;5.60;2.00;;;;;;;12.27;74.14;98699.75;1654387;85;21006;-44
2022/05/30 11:53:35;;;;;;;6.17;2.00;;;;;;;12.39;73.90;98704.63;1686612;85;21010;-40
2022/05/30 11:56:16;;;;;;;3.10;1.72;;;;;;;12.45;74.91;98708.62;1631073;88;20995;-42
2022/05/30 11:59:02;;;;;;;3.85;1.85;;;;;;;12.57;75.11;98698.95;1630896;86;21046;-42
2022/05/30 12:01:31;;;;;;;3.33;2.10;;;;;;;12.62;75.30;98704.74;1631538;86;21084;-43
2022/05/30 12:04:52;;;;;;;2.83;1.72;;;;;;;12.72;75.04;98703.61;1631649;86;21503;-46
2022/05/30 12:07:39;;;;;;;16.48;2.30;;;;;;;12.74;74.03;98703.02;1631753;88;21139;-41
2022/05/30 12:10:23;;;;;;;2.60;1.70;;;;;;;12.67;74.66;98701.30;1631886;86;21519;-46
2022/05/30 12:13:09;;;;;;;3.00;2.00;;;;;;;12.81;74.17;98702.94;1631731;88;21051;-41